DW9245 Weather Reports


time (UTC)temp
F
wind
direction
speed
knots
gust
knots
rain 1hr
in
rain 24hr
in
rain mn
in
humidity
%
barometer
mb
20191214070008 57 0 7.8 0.0 0.00 0.00 0.00 56 1020.3
20191214065009 57 45 7.8 0.0 0.00 0.00 0.00 54 1020.1
20191214062011 59 225 11.3 0.0 0.00 0.00 0.00 51 1019.5
20191214060008 59 225 12.2 0.0 0.00 0.00 0.00 52 1019.4
20191214054008 60 45 8.7 0.0 0.00 0.00 0.00 50 1019.3
20191214052008 60 0 11.3 0.0 0.00 0.00 0.00 51 1019.1
20191214051011 58 225 9.6 0.0 0.00 0.00 0.00 52 1019.0
20191214050011 60 270 10.4 0.0 0.00 0.00 0.00 51 1019.0
20191214043009 58 0 5.2 0.0 0.00 0.00 0.00 57 1019.4
20191214042008 57 0 6.1 0.0 0.00 0.00 0.00 56 1019.4
20191214041008 57 225 6.1 0.0 0.00 0.00 0.00 58 1019.3
20191214040009 57 0 4.3 0.0 0.00 0.00 0.00 56 1019.5
20191214034008 55 225 5.2 0.0 0.00 0.00 0.00 59 1019.5
20191214032008 54 225 4.3 0.0 0.00 0.00 0.00 60 1020.0
20191214024008 52 202 3.5 0.0 0.00 0.00 0.00 62 1020.9
20191214022008 52 0 4.3 0.0 0.00 0.00 0.00 64 1021.2
20191214021008 50 225 4.3 0.0 0.00 0.00 0.00 64 1021.4
20191214014009 47 158 1.7 0.0 0.00 0.00 0.00 71 1022.1
20191214013012 46 90 5.2 0.0 0.00 0.00 0.00 71 1022.0
20191214012008 47 0 2.6 0.0 0.00 0.00 0.00 70 1022.3
20191214011008 46 0 1.7 0.0 0.00 0.00 0.00 72 1022.5
20191214010016 46 0 0.9 0.0 0.00 0.00 0.00 74 1022.5
20191214005008 44 90 3.5 0.0 0.00 0.00 0.00 75 1022.5
20191214004008 45 0 1.7 0.0 0.00 0.00 0.00 76 1022.6
20191214002010 44 90 1.7 0.0 0.00 0.00 0.00 80 1022.3
20191213235009 43 180 1.7 0.0 0.00 0.00 0.00 78 1022.6
20191213234008 41 225 3.5 0.0 0.00 0.00 0.00 80 1022.3
20191213230008 39 0 1.7 0.0 0.00 0.00 0.00 85 1022.4
20191213225009 39 0 2.6 0.0 0.00 0.00 0.00 86 1022.4
20191213224008 39 22 2.6 0.0 0.00 0.00 0.00 86 1022.2
20191213222009 39 45 0.9 0.0 0.00 0.00 0.00 86 1022.4
20191213221008 39 0 1.7 0.0 0.00 0.00 0.00 86 1022.0
20191213220016 39 0 1.7 0.0 0.00 0.00 0.00 87 1022.3
20191213214008 38 0 1.7 0.0 0.00 0.00 0.00 87 1022.3
20191213213008 38 0 2.6 0.0 0.00 0.00 0.00 88 1022.2
20191213210007 38 90 2.6 0.0 0.00 0.00 0.00 89 1021.9
20191213204008 38 0 1.7 0.0 0.00 0.00 0.00 89 1022.0
20191213203008 38 0 1.7 0.0 0.00 0.00 0.00 88 1022.0
20191213202008 38 0 0.0 0.0 0.00 0.00 0.00 88 1022.0
20191213201009 38 0 1.7 0.0 0.00 0.00 0.00 88 1022.0
20191213200018 38 45 0.0 0.0 0.00 0.00 0.00 88 1021.9
20191213193009 38 90 0.0 0.0 0.00 0.00 0.00 89 1022.2
20191213191008 39 0 0.0 0.0 0.00 0.00 0.00 88 1022.3
20191213190012 38 270 0.0 0.0 0.00 0.00 0.00 87 1022.5
20191213185008 39 0 0.0 0.0 0.00 0.00 0.00 87 1022.5
20191213184008 39 0 0.9 0.0 0.00 0.00 0.00 85 1022.8
20191213183008 41 225 1.7 0.0 0.00 0.00 0.00 83 1022.9
20191213182009 39 0 0.9 0.0 0.00 0.00 0.00 84 1023.0
20191213180008 40 225 1.7 0.0 0.00 0.00 0.00 83 1023.4
20191213171008 41 225 1.7 0.0 0.00 0.00 0.00 82 1023.6
20191213170008 41 225 1.7 0.0 0.00 0.00 0.00 83 1023.7
20191213165009 43 225 1.7 0.0 0.00 0.00 0.00 81 1023.8
20191213161008 42 180 2.6 0.0 0.00 0.00 0.00 83 1023.6
20191213160008 43 225 1.7 0.0 0.00 0.00 0.00 81 1023.6
20191213155008 43 68 0.0 0.0 0.00 0.00 0.00 82 1023.5
20191213153008 42 68 0.0 0.0 0.00 0.00 0.00 82 1023.8
20191213150011 44 0 0.9 0.0 0.00 0.00 0.00 76 1023.8
20191213145008 45 225 0.0 0.0 0.00 0.00 0.00 75 1023.9
20191213144008 44 225 1.7 0.0 0.00 0.00 0.00 76 1023.7
20191213142008 44 90 1.7 0.0 0.00 0.00 0.00 77 1023.8
20191213141008 45 0 0.0 0.0 0.00 0.00 0.00 75 1024.1
20191213140011 45 0 0.0 0.0 0.00 0.00 0.00 74 1024.1
20191213135009 45 0 0.0 0.0 0.00 0.00 0.00 74 1024.1
20191213134008 45 0 0.0 0.0 0.00 0.00 0.00 72 1024.2
20191213133008 47 0 0.0 0.0 0.00 0.00 0.00 70 1024.3
20191213132009 46 0 0.0 0.0 0.00 0.00 0.00 72 1024.4
20191213130008 45 0 3.5 0.0 0.00 0.00 0.00 73 1024.5
20191213125008 46 0 1.7 0.0 0.00 0.00 0.00 72 1024.4
20191213124008 47 0 0.0 0.0 0.00 0.00 0.00 72 1024.4
20191213123008 47 0 1.7 0.0 0.00 0.00 0.00 71 1024.5
20191213122009 47 0 0.9 0.0 0.00 0.00 0.00 68 1024.5
20191213121008 46 0 0.0 0.0 0.00 0.00 0.00 69 1024.7
20191213120008 46 225 0.0 0.0 0.00 0.00 0.00 70 1024.8
20191213115008 48 225 0.0 0.0 0.00 0.00 0.00 68 1024.8
20191213112008 47 225 1.7 0.0 0.00 0.00 0.00 72 1025.1
20191213110011 47 45 1.7 0.0 0.00 0.00 0.00 70 1025.3
20191213105009 48 135 0.9 0.0 0.00 0.00 0.00 69 1025.2
20191213101009 48 0 0.0 0.0 0.00 0.00 0.00 66 1024.8
20191213095008 49 180 0.0 0.0 0.00 0.00 0.00 66 1024.8
20191213094008 49 225 1.7 0.0 0.00 0.00 0.00 64 1024.8
20191213093008 48 90 1.7 0.0 0.00 0.00 0.00 65 1024.7
20191213092008 49 90 0.9 0.0 0.00 0.00 0.00 65 1024.6
20191213090009 49 45 0.0 0.0 0.00 0.00 0.00 60 1024.4
20191213085008 49 90 0.0 0.0 0.00 0.00 0.00 59 1024.2
20191213084008 49 90 1.7 0.0 0.00 0.00 0.00 59 1024.2
20191213083008 50 90 0.0 0.0 0.00 0.00 0.00 58 1024.3
20191213081009 50 90 0.0 0.0 0.00 0.00 0.00 58 1024.1
20191213080015 51 45 1.7 0.0 0.00 0.00 0.00 55 1024.1
20191213075008 51 158 0.0 0.0 0.00 0.00 0.00 55 1024.2
20191213073008 52 180 0.0 0.0 0.00 0.00 0.00 55 1024.1